createdAt,value
2018-04-10T00:02:10.619Z,7.60
2018-04-10T00:04:38.065Z,6.93
2018-04-10T00:07:05.816Z,4.77
2018-04-10T00:09:32.785Z,5.20
2018-04-10T00:12:00.209Z,7.07
2018-04-10T00:14:27.204Z,5.50
2018-04-10T00:16:54.195Z,5.67
2018-04-10T00:19:21.192Z,4.83
2018-04-10T00:21:48.219Z,5.47
2018-04-10T00:24:15.198Z,9.30
2018-04-10T00:26:42.291Z,5.87
2018-04-10T00:29:09.455Z,5.57
2018-04-10T00:31:36.598Z,5.70
2018-04-10T00:34:03.594Z,5.20
2018-04-10T00:36:30.583Z,6.10
2018-04-10T00:38:57.584Z,5.90
2018-04-10T00:41:24.779Z,6.50
2018-04-10T00:43:51.778Z,5.17
2018-04-10T00:46:18.819Z,7.30
2018-04-10T00:48:45.876Z,7.87
2018-04-10T00:51:12.970Z,5.40
2018-04-10T00:53:39.973Z,5.67
2018-04-10T00:56:07.740Z,6.80
2018-04-10T00:58:34.777Z,7.47
2018-04-10T01:01:01.976Z,5.80
2018-04-10T01:03:28.970Z,6.17
2018-04-10T01:05:55.977Z,7.03
2018-04-10T01:08:22.970Z,7.00
2018-04-10T01:10:50.168Z,5.27
2018-04-10T01:13:17.165Z,5.23
2018-04-10T01:15:44.160Z,6.93
2018-04-10T01:18:11.151Z,7.43
2018-04-10T01:20:38.155Z,5.67
2018-04-10T01:23:05.159Z,6.37
2018-04-10T01:25:33.680Z,8.77
2018-04-10T01:28:00.663Z,5.20
2018-04-10T01:30:27.663Z,4.90
2018-04-10T01:32:54.654Z,5.73
2018-04-10T01:35:21.657Z,6.00
2018-04-10T01:37:48.651Z,5.70
2018-04-10T01:40:15.631Z,5.90
2018-04-10T01:42:43.435Z,6.50
2018-04-10T01:45:10.426Z,6.67
2018-04-10T01:47:37.423Z,5.83
2018-04-10T01:50:04.412Z,8.87
2018-04-10T01:52:31.632Z,5.43
2018-04-10T01:54:58.618Z,6.57
2018-04-10T01:57:25.612Z,6.70
2018-04-10T01:59:52.604Z,5.77
2018-04-10T02:02:19.815Z,6.13
2018-04-10T02:04:46.810Z,5.53
2018-04-10T02:07:13.809Z,6.07
2018-04-10T02:09:40.808Z,5.63
2018-04-10T02:12:08.011Z,5.97
2018-04-10T02:14:35.011Z,7.00
2018-04-10T02:17:02.006Z,5.40
2018-04-10T02:19:28.990Z,6.37
2018-04-10T02:21:56.192Z,6.20
2018-04-10T02:24:23.184Z,6.13
2018-04-10T02:26:50.182Z,8.03
2018-04-10T02:29:17.170Z,7.07
2018-04-10T02:31:44.175Z,5.97
2018-04-10T02:34:11.175Z,5.60
2018-04-10T02:36:38.169Z,6.00
2018-04-10T02:39:05.173Z,4.70
2018-04-10T02:41:32.375Z,8.03
2018-04-10T02:43:59.372Z,5.37
2018-04-10T02:46:26.367Z,6.07
2018-04-10T02:48:53.339Z,7.30
2018-04-10T02:51:20.356Z,5.67
2018-04-10T02:53:47.362Z,5.63
2018-04-10T02:56:14.356Z,6.50
2018-04-10T02:58:41.345Z,6.33
2018-04-10T03:01:08.543Z,7.20
2018-04-10T03:03:35.556Z,5.77
2018-04-10T03:06:02.556Z,5.87
2018-04-10T03:08:29.561Z,5.60
2018-04-10T03:10:57.357Z,7.40
2018-04-10T03:13:24.371Z,6.70
2018-04-10T03:15:51.372Z,6.17
2018-04-10T03:18:18.365Z,7.30
2018-04-10T03:20:46.168Z,5.67
2018-04-10T03:23:13.168Z,5.77
2018-04-10T03:25:40.186Z,5.63
2018-04-10T03:28:07.175Z,5.93
2018-04-10T03:30:34.948Z,5.63
2018-04-10T03:33:01.971Z,7.23
2018-04-10T03:35:30.454Z,8.40
2018-04-10T03:37:57.453Z,6.30
2018-04-10T03:40:24.443Z,6.17
2018-04-10T03:42:51.445Z,6.03
2018-04-10T03:45:18.457Z,9.27
2018-04-10T03:47:45.478Z,6.47
2018-04-10T03:50:12.567Z,6.73
2018-04-10T03:52:39.640Z,5.53
2018-04-10T03:55:06.643Z,6.20
2018-04-10T03:57:33.627Z,7.00
2018-04-10T04:00:00.610Z,6.90
2018-04-10T04:02:27.816Z,6.10
2018-04-10T04:04:54.819Z,6.87
2018-04-10T04:07:22.598Z,6.17
2018-04-10T04:09:50.359Z,7.97
2018-04-10T04:12:17.446Z,5.80
2018-04-10T04:14:44.440Z,6.30
2018-04-10T04:17:11.748Z,6.70
2018-04-10T04:19:38.731Z,8.90
2018-04-10T04:22:06.883Z,7.87
2018-04-10T04:24:33.890Z,8.03
2018-04-10T04:27:00.882Z,8.03
2018-04-10T04:29:27.876Z,8.10
2018-04-10T04:31:55.666Z,8.73
2018-04-10T04:34:22.655Z,12.20
2018-04-10T04:36:49.657Z,6.30
2018-04-10T04:39:16.660Z,8.13
2018-04-10T04:41:43.849Z,9.90
2018-04-10T04:44:10.881Z,11.90
2018-04-10T04:46:37.878Z,8.23
2018-04-10T04:49:04.879Z,9.07
2018-04-10T04:51:32.038Z,7.73
2018-04-10T04:53:59.037Z,11.47
2018-04-10T04:56:26.032Z,10.20
2018-04-10T04:58:53.039Z,9.83
2018-04-10T05:01:20.234Z,8.10
2018-04-10T05:03:47.213Z,15.80
2018-04-10T05:06:14.210Z,10.33
2018-04-10T05:08:41.240Z,16.63
2018-04-10T05:11:08.327Z,9.20
2018-04-10T05:13:35.314Z,12.23
2018-04-10T05:16:03.818Z,12.53
2018-04-10T05:18:30.822Z,10.60
2018-04-10T05:20:57.947Z,10.80
2018-04-10T05:23:24.945Z,21.90
2018-04-10T05:25:51.933Z,22.07
2018-04-10T05:28:18.928Z,9.23
2018-04-10T05:30:46.967Z,15.23
2018-04-10T05:33:13.958Z,8.00
2018-04-10T05:35:41.035Z,7.80
2018-04-10T05:38:08.006Z,21.00
2018-04-10T05:40:35.012Z,20.07
2018-04-10T05:43:02.773Z,27.73
2018-04-10T05:45:29.788Z,15.53
2018-04-10T05:47:56.811Z,11.57
2018-04-10T05:50:23.795Z,9.77
2018-04-10T05:52:50.824Z,10.23
2018-04-10T05:55:17.820Z,11.33
2018-04-10T05:57:44.801Z,11.20
2018-04-10T06:00:11.798Z,7.60
2018-04-10T06:02:40.633Z,9.60
2018-04-10T06:05:08.474Z,7.80
2018-04-10T06:07:35.465Z,9.50
2018-04-10T06:10:02.468Z,7.53
2018-04-10T06:12:29.630Z,7.80
2018-04-10T06:14:56.634Z,6.53
2018-04-10T06:17:23.629Z,8.00
2018-04-10T06:19:50.636Z,8.53
2018-04-10T06:22:18.643Z,8.73
2018-04-10T06:24:45.648Z,7.27
2018-04-10T06:27:14.184Z,9.57
2018-04-10T06:29:41.158Z,7.33
2018-04-10T06:32:08.255Z,7.57
2018-04-10T06:34:35.255Z,8.67
2018-04-10T06:37:02.289Z,11.17
2018-04-10T06:39:29.296Z,8.33
2018-04-10T06:41:57.413Z,9.60
2018-04-10T06:44:24.392Z,7.13
2018-04-10T06:46:52.164Z,7.77
2018-04-10T06:49:19.924Z,8.87
2018-04-10T06:51:47.724Z,14.53
2018-04-10T06:54:14.717Z,8.87
2018-04-10T06:56:43.272Z,13.03
2018-04-10T06:59:10.263Z,14.53
2018-04-10T07:01:37.389Z,7.50
2018-04-10T07:04:04.398Z,11.90
2018-04-10T07:06:31.395Z,7.33
2018-04-10T07:08:58.392Z,12.43
2018-04-10T07:11:25.556Z,13.00
2018-04-10T07:13:52.542Z,13.10
2018-04-10T07:16:19.548Z,13.50
2018-04-10T07:18:46.553Z,22.63
2018-04-10T07:21:16.403Z,7.70
2018-04-10T07:23:43.392Z,8.33
2018-04-10T07:26:10.403Z,9.87
2018-04-10T07:28:37.399Z,20.30
2018-04-10T07:31:05.197Z,8.67
2018-04-10T07:33:32.186Z,23.00
2018-04-10T07:35:59.182Z,7.67
2018-04-10T07:38:26.174Z,9.63
2018-04-10T07:40:53.171Z,13.80
2018-04-10T07:43:20.166Z,10.83
2018-04-10T07:45:47.163Z,10.67
2018-04-10T07:48:14.159Z,6.53
2018-04-10T07:50:41.179Z,7.87
2018-04-10T07:53:08.162Z,10.27
2018-04-10T07:55:35.162Z,11.40
2018-04-10T07:58:02.166Z,18.20
2018-04-10T08:00:29.938Z,10.73
2018-04-10T08:02:56.929Z,6.30
2018-04-10T08:05:23.928Z,7.47
2018-04-10T08:07:51.698Z,6.10
2018-04-10T08:10:18.686Z,9.60
2018-04-10T08:12:45.824Z,8.70
2018-04-10T08:15:13.473Z,7.27
2018-04-10T08:17:40.481Z,10.03
2018-04-10T08:20:07.463Z,5.77
2018-04-10T08:22:35.251Z,6.47
2018-04-10T08:25:02.231Z,5.33
2018-04-10T08:27:29.215Z,5.50
2018-04-10T08:29:56.987Z,5.20
2018-04-10T08:32:24.065Z,6.80
2018-04-10T08:34:51.055Z,6.50
2018-04-10T08:37:18.046Z,8.33
2018-04-10T08:39:45.052Z,5.60
2018-04-10T08:42:12.846Z,4.57
2018-04-10T08:44:39.843Z,8.27
2018-04-10T08:47:06.841Z,8.60
2018-04-10T08:49:33.825Z,11.60
2018-04-10T08:52:00.845Z,15.83
2018-04-10T08:54:27.855Z,9.73
2018-04-10T08:56:54.919Z,7.90
2018-04-10T08:59:21.902Z,11.63
2018-04-10T09:01:49.030Z,9.70
2018-04-10T09:04:16.033Z,7.37
2018-04-10T09:06:43.020Z,13.47
2018-04-10T09:09:10.018Z,7.20
2018-04-10T09:11:37.220Z,8.20
2018-04-10T09:14:04.236Z,16.50
2018-04-10T09:16:31.218Z,7.87
2018-04-10T09:18:58.239Z,11.63
2018-04-10T09:21:25.413Z,10.80
2018-04-10T09:23:52.402Z,9.23
2018-04-10T09:26:20.183Z,8.30
2018-04-10T09:28:47.467Z,7.33
2018-04-10T09:31:15.042Z,8.83
2018-04-10T09:33:42.895Z,10.77
2018-04-10T09:36:09.887Z,7.00
2018-04-10T09:38:37.072Z,9.03
2018-04-10T09:41:04.454Z,11.70
2018-04-10T09:43:32.424Z,5.87
2018-04-10T09:45:59.779Z,12.20
2018-04-10T09:48:27.037Z,6.80
2018-04-10T09:50:54.496Z,11.10
2018-04-10T09:53:21.550Z,12.03
2018-04-10T09:55:48.769Z,8.40
2018-04-10T09:58:16.437Z,10.50
2018-04-10T10:00:43.956Z,6.30
2018-04-10T10:03:10.943Z,4.97
2018-04-10T10:05:37.947Z,6.63
2018-04-10T10:08:05.610Z,7.10
2018-04-10T10:10:32.716Z,5.90
2018-04-10T10:12:59.745Z,6.20
2018-04-10T10:15:26.743Z,5.70
2018-04-10T10:17:53.735Z,5.33
2018-04-10T10:20:21.496Z,6.00
2018-04-10T10:22:48.499Z,8.47
2018-04-10T10:25:15.497Z,6.20
2018-04-10T10:27:43.242Z,4.00
2018-04-10T10:30:10.244Z,4.90
2018-04-10T10:32:37.379Z,6.40
2018-04-10T10:35:04.372Z,6.70
2018-04-10T10:37:31.372Z,7.37
2018-04-10T10:39:58.365Z,5.63
2018-04-10T10:42:25.578Z,6.53
2018-04-10T10:44:52.580Z,12.33
2018-04-10T10:47:20.475Z,10.30
2018-04-10T10:49:47.624Z,6.27
2018-04-10T10:52:14.864Z,10.13
2018-04-10T10:54:42.615Z,6.73
2018-04-10T10:57:09.824Z,8.50
2018-04-10T10:59:36.826Z,6.60
2018-04-10T11:02:04.748Z,8.70
2018-04-10T11:04:33.087Z,13.97
2018-04-10T11:07:00.344Z,10.00
2018-04-10T11:09:27.335Z,8.67
2018-04-10T11:11:55.265Z,8.17
2018-04-10T11:14:22.334Z,8.60
2018-04-10T11:16:49.324Z,10.53
2018-04-10T11:19:16.340Z,6.97
2018-04-10T11:21:43.441Z,9.20
2018-04-10T11:24:10.432Z,11.20
2018-04-10T11:26:37.472Z,16.23
2018-04-10T11:29:04.467Z,11.60
2018-04-10T11:31:32.247Z,15.57
2018-04-10T11:33:59.257Z,6.37
2018-04-10T11:36:27.752Z,9.83
2018-04-10T11:38:54.739Z,9.07
2018-04-10T11:41:21.888Z,10.30
2018-04-10T11:43:48.871Z,12.10
2018-04-10T11:46:15.992Z,12.17
2018-04-10T11:48:43.002Z,9.73
2018-04-10T11:51:10.063Z,10.87
2018-04-10T11:53:37.250Z,11.93
2018-04-10T11:56:04.240Z,11.00
2018-04-10T11:58:32.006Z,12.03
2018-04-10T12:00:59.314Z,8.20
2018-04-10T12:03:27.174Z,13.73
2018-04-10T12:05:54.183Z,13.03
2018-04-10T12:08:21.167Z,12.53
2018-04-10T12:10:50.277Z,13.47
2018-04-10T12:13:17.426Z,9.57
2018-04-10T12:15:44.516Z,9.23
2018-04-10T12:18:12.306Z,13.10
2018-04-10T12:20:39.559Z,21.03
2018-04-10T12:23:06.581Z,11.37
2018-04-10T12:25:33.653Z,18.83
2018-04-10T12:28:00.694Z,7.87
2018-04-10T12:30:27.936Z,13.33
2018-04-10T12:32:55.085Z,10.93
2018-04-10T12:35:22.183Z,10.23
2018-04-10T12:37:49.374Z,11.97
2018-04-10T12:40:18.748Z,12.20
2018-04-10T12:42:45.805Z,9.60
2018-04-10T12:45:13.287Z,15.00
2018-04-10T12:47:40.550Z,19.00
2018-04-10T12:50:07.799Z,13.57
2018-04-10T12:52:34.941Z,12.53
2018-04-10T12:55:02.960Z,14.03
2018-04-10T12:57:29.987Z,7.80
2018-04-10T12:59:57.115Z,10.77
2018-04-10T13:02:24.795Z,13.23
2018-04-10T13:04:51.926Z,10.57
2018-04-10T13:07:18.992Z,8.80
2018-04-10T13:09:46.074Z,9.90
2018-04-10T13:12:13.372Z,17.70
2018-04-10T13:14:41.351Z,14.53
2018-04-10T13:17:08.524Z,12.13
2018-04-10T13:19:35.611Z,7.77
2018-04-10T13:22:03.928Z,9.90
2018-04-10T13:24:32.083Z,16.87
2018-04-10T13:27:00.073Z,14.83
2018-04-10T13:29:27.200Z,10.57
2018-04-10T13:31:55.074Z,16.53
2018-04-10T13:34:23.302Z,13.00
2018-04-10T13:36:50.331Z,16.23
2018-04-10T13:39:17.482Z,11.43
2018-04-10T13:41:44.802Z,9.77
2018-04-10T13:44:11.823Z,15.23
2018-04-10T13:46:39.109Z,16.67
2018-04-10T13:49:06.199Z,13.93
2018-04-10T13:51:33.213Z,15.07
2018-04-10T13:54:00.586Z,16.10
2018-04-10T13:56:27.575Z,12.63
2018-04-10T13:58:54.581Z,12.43
2018-04-10T14:01:21.606Z,9.63
2018-04-10T14:03:48.596Z,20.80
2018-04-10T14:06:15.584Z,16.20
2018-04-10T14:08:43.347Z,17.40
2018-04-10T14:11:11.065Z,8.80
2018-04-10T14:13:39.248Z,11.97
2018-04-10T14:16:06.242Z,17.57
2018-04-10T14:18:33.256Z,14.20
2018-04-10T14:21:00.465Z,14.33
2018-04-10T14:23:28.197Z,11.73
2018-04-10T14:25:55.335Z,9.40
2018-04-10T14:28:22.325Z,14.47
2018-04-10T14:30:49.473Z,15.57
2018-04-10T14:33:16.477Z,15.10
2018-04-10T14:35:44.248Z,17.10
2018-04-10T14:38:12.010Z,23.33
2018-04-10T14:40:39.020Z,20.13
2018-04-10T14:43:06.008Z,14.63
2018-04-10T14:45:33.809Z,12.43
2018-04-10T14:48:00.816Z,14.33
2018-04-10T14:50:27.803Z,16.70
2018-04-10T14:52:54.825Z,15.63
2018-04-10T14:55:21.852Z,11.63
2018-04-10T14:57:48.840Z,12.00
2018-04-10T15:00:15.847Z,16.53
2018-04-10T15:02:42.918Z,12.57
2018-04-10T15:05:09.915Z,13.80
2018-04-10T15:07:36.932Z,13.23
2018-04-10T15:10:03.923Z,13.90
2018-04-10T15:12:31.132Z,9.17
2018-04-10T15:14:58.360Z,10.83
2018-04-10T15:17:25.675Z,9.33
2018-04-10T15:19:52.787Z,9.30
2018-04-10T15:22:19.951Z,6.80
2018-04-10T15:24:46.969Z,9.07
2018-04-10T15:27:13.967Z,7.63
2018-04-10T15:29:40.967Z,8.23
2018-04-10T15:32:08.123Z,17.17
2018-04-10T15:34:35.126Z,9.33
2018-04-10T15:37:02.117Z,8.27
2018-04-10T15:39:29.099Z,11.43
2018-04-10T15:41:56.320Z,13.43
2018-04-10T15:44:23.332Z,9.93
2018-04-10T15:46:50.338Z,9.37
2018-04-10T15:49:17.324Z,7.10
2018-04-10T15:51:45.111Z,10.47
2018-04-10T15:54:12.114Z,17.10
2018-04-10T15:56:39.149Z,4.87
2018-04-10T15:59:06.172Z,9.47
2018-04-10T16:01:33.314Z,6.20
2018-04-10T16:04:00.336Z,4.60
2018-04-10T16:06:27.325Z,5.53
2018-04-10T16:08:54.326Z,5.17
2018-04-10T16:11:21.520Z,6.70
2018-04-10T16:13:48.531Z,4.20
2018-04-10T16:16:15.536Z,5.30
2018-04-10T16:18:44.043Z,4.13
2018-04-10T16:21:11.113Z,8.53
2018-04-10T16:23:38.291Z,14.50
2018-04-10T16:26:05.300Z,5.67
2018-04-10T16:28:32.374Z,4.53
2018-04-10T16:30:59.512Z,22.30
2018-04-10T16:33:26.509Z,7.10
2018-04-10T16:35:54.287Z,8.33
2018-04-10T16:38:21.279Z,5.00
2018-04-10T16:40:48.312Z,7.87
2018-04-10T16:43:15.312Z,5.33
2018-04-10T16:45:42.310Z,4.57
2018-04-10T16:48:09.295Z,4.90
2018-04-10T16:50:36.312Z,9.90
2018-04-10T16:53:03.303Z,3.80
2018-04-10T16:55:30.303Z,5.63
2018-04-10T16:57:57.311Z,3.90
2018-04-10T17:00:25.075Z,3.63
2018-04-10T17:02:52.061Z,6.20
2018-04-10T17:05:19.083Z,9.00
2018-04-10T17:07:46.851Z,5.60
2018-04-10T17:10:13.842Z,3.80
2018-04-10T17:12:40.973Z,7.40
2018-04-10T17:15:08.954Z,6.40
2018-04-10T17:17:35.941Z,8.50
2018-04-10T17:20:03.701Z,9.83
2018-04-10T17:22:30.789Z,3.43
2018-04-10T17:24:57.795Z,4.87
2018-04-10T17:27:24.795Z,6.77
2018-04-10T17:29:51.792Z,5.97
2018-04-10T17:32:19.511Z,4.80
2018-04-10T17:34:46.539Z,7.40
2018-04-10T17:37:13.561Z,5.47
2018-04-10T17:39:41.325Z,6.33
2018-04-10T17:42:08.412Z,6.70
2018-04-10T17:44:35.412Z,8.50
2018-04-10T17:47:02.422Z,4.77
2018-04-10T17:49:29.429Z,4.93
2018-04-10T17:51:56.620Z,3.50
2018-04-10T17:54:23.585Z,4.03
2018-04-10T17:56:51.865Z,5.40
2018-04-10T17:59:18.840Z,2.50
2018-04-10T18:01:46.624Z,6.00
2018-04-10T18:04:13.658Z,3.43
2018-04-10T18:06:40.648Z,4.10
2018-04-10T18:09:07.696Z,4.97
2018-04-10T18:11:34.815Z,2.40
2018-04-10T18:14:01.812Z,2.70
2018-04-10T18:16:28.814Z,4.40
2018-04-10T18:18:55.808Z,2.20
2018-04-10T18:21:22.803Z,2.40
2018-04-10T18:23:49.851Z,3.97
2018-04-10T18:26:16.849Z,2.90
2018-04-10T18:28:43.848Z,2.37
2018-04-10T18:31:11.030Z,3.80
2018-04-10T18:33:38.063Z,2.50
2018-04-10T18:36:05.084Z,3.00
2018-04-10T18:38:32.122Z,6.40
2018-04-10T18:40:59.197Z,2.53
2018-04-10T18:43:26.258Z,2.93
2018-04-10T18:45:53.323Z,2.53
2018-04-10T18:48:20.371Z,10.53
2018-04-10T18:50:47.406Z,1.97
2018-04-10T18:53:14.419Z,2.13
2018-04-10T18:55:41.446Z,4.10
2018-04-10T18:58:08.457Z,5.40
2018-04-10T19:00:35.487Z,3.90
2018-04-10T19:03:02.525Z,5.70
2018-04-10T19:05:29.529Z,1.70
2018-04-10T19:07:57.299Z,2.30
2018-04-10T19:10:24.318Z,1.80
2018-04-10T19:12:51.355Z,2.40
2018-04-10T19:15:18.413Z,3.73
2018-04-10T19:17:45.426Z,6.57
2018-04-10T19:20:12.470Z,2.57
2018-04-10T19:22:39.651Z,1.87
2018-04-10T19:25:06.645Z,7.80
2018-04-10T19:27:33.639Z,5.83
2018-04-10T19:30:00.631Z,1.40
2018-04-10T19:32:28.712Z,2.13
2018-04-10T19:34:56.245Z,1.57
2018-04-10T19:37:24.005Z,3.73
2018-04-10T19:39:51.035Z,1.67
2018-04-10T19:42:18.047Z,2.90
2018-04-10T19:44:45.044Z,1.77
2018-04-10T19:47:12.051Z,2.93
2018-04-10T19:49:39.041Z,5.00
2018-04-10T19:52:06.226Z,8.90
2018-04-10T19:54:33.231Z,4.33
2018-04-10T19:57:01.737Z,3.60
2018-04-10T19:59:28.731Z,2.30
2018-04-10T20:01:55.867Z,3.53
2018-04-10T20:04:22.863Z,1.83
2018-04-10T20:06:50.165Z,1.57
2018-04-10T20:09:17.553Z,1.40
2018-04-10T20:11:44.861Z,1.80
2018-04-10T20:14:11.864Z,2.90
2018-04-10T20:16:38.857Z,2.30
2018-04-10T20:19:05.906Z,5.17
2018-04-10T20:21:33.063Z,3.83
2018-04-10T20:24:00.054Z,5.13
2018-04-10T20:26:27.058Z,3.70
2018-04-10T20:28:54.073Z,1.73
2018-04-10T20:31:21.863Z,1.60
2018-04-10T20:33:48.852Z,2.70
2018-04-10T20:36:15.875Z,2.73
2018-04-10T20:38:42.863Z,2.00
2018-04-10T20:41:11.008Z,1.73
2018-04-10T20:43:37.992Z,2.73
2018-04-10T20:46:05.755Z,1.50
2018-04-10T20:48:32.754Z,1.50
2018-04-10T20:50:59.887Z,1.90
2018-04-10T20:53:26.868Z,1.90
2018-04-10T20:55:53.862Z,1.53
2018-04-10T20:58:20.856Z,1.70
2018-04-10T21:00:47.871Z,1.40
2018-04-10T21:03:14.845Z,3.60
2018-04-10T21:05:41.847Z,1.80
2018-04-10T21:08:08.859Z,2.70
2018-04-10T21:10:35.859Z,3.70
2018-04-10T21:13:02.888Z,1.57
2018-04-10T21:15:29.870Z,1.50
2018-04-10T21:17:56.886Z,3.27
2018-04-10T21:20:23.880Z,10.40
2018-04-10T21:22:50.873Z,2.23
2018-04-10T21:25:17.872Z,1.70
2018-04-10T21:27:44.867Z,2.17
2018-04-10T21:30:11.866Z,1.63
2018-04-10T21:32:38.885Z,4.20
2018-04-10T21:35:06.931Z,2.20
2018-04-10T21:37:33.938Z,3.93
2018-04-10T21:40:00.940Z,2.17
2018-04-10T21:42:28.082Z,2.43
2018-04-10T21:44:55.529Z,1.40
2018-04-10T21:47:24.284Z,2.87
2018-04-10T21:49:51.266Z,1.83
2018-04-10T21:52:18.330Z,3.87
2018-04-10T21:54:45.987Z,3.53
2018-04-10T21:57:12.975Z,7.93
2018-04-10T21:59:40.079Z,3.00
2018-04-10T22:02:07.130Z,1.80
2018-04-10T22:04:34.124Z,2.00
2018-04-10T22:07:01.124Z,4.43
2018-04-10T22:09:28.118Z,1.30
2018-04-10T22:11:55.317Z,1.30
2018-04-10T22:14:22.326Z,2.37
2018-04-10T22:16:49.303Z,1.53
2018-04-10T22:19:16.355Z,1.20
2018-04-10T22:21:43.510Z,1.43
2018-04-10T22:24:10.491Z,2.20
2018-04-10T22:26:37.483Z,5.53
2018-04-10T22:29:05.317Z,1.83
2018-04-10T22:31:32.548Z,2.33
2018-04-10T22:33:59.901Z,5.00
2018-04-10T22:36:27.304Z,1.70
2018-04-10T22:38:54.292Z,1.77
2018-04-10T22:41:21.304Z,1.80
2018-04-10T22:43:48.302Z,2.30
2018-04-10T22:46:16.057Z,3.80
2018-04-10T22:48:43.556Z,3.63
2018-04-10T22:51:10.701Z,1.50
2018-04-10T22:53:37.741Z,2.20
2018-04-10T22:56:05.515Z,2.23
2018-04-10T22:58:33.228Z,3.40
2018-04-10T23:01:04.825Z,5.93
2018-04-10T23:03:32.838Z,3.07
2018-04-10T23:05:59.916Z,4.37
2018-04-10T23:08:27.244Z,2.30
2018-04-10T23:10:54.388Z,1.90
2018-04-10T23:13:21.391Z,1.50
2018-04-10T23:15:48.379Z,1.30
2018-04-10T23:18:15.524Z,2.03
2018-04-10T23:20:42.533Z,1.37
2018-04-10T23:23:09.540Z,1.37
2018-04-10T23:25:36.548Z,1.50
2018-04-10T23:28:04.311Z,1.40
2018-04-10T23:30:31.938Z,1.60
2018-04-10T23:32:58.943Z,1.83
2018-04-10T23:35:26.734Z,2.80
2018-04-10T23:37:53.980Z,1.43
2018-04-10T23:40:21.135Z,1.37
2018-04-10T23:42:48.411Z,1.23
2018-04-10T23:45:15.403Z,1.57
2018-04-10T23:47:43.355Z,2.60
2018-04-10T23:50:11.266Z,2.57
2018-04-10T23:52:38.869Z,1.63
2018-04-10T23:55:06.381Z,2.47
2018-04-10T23:57:33.589Z,1.43
